createdAt,value
2017-08-19T00:02:05.448Z,1.47
2017-08-19T00:04:34.893Z,1.47
2017-08-19T00:07:04.328Z,1.20
2017-08-19T00:09:33.776Z,1.10
2017-08-19T00:12:03.228Z,1.30
2017-08-19T00:14:32.660Z,1.13
2017-08-19T00:17:02.133Z,1.17
2017-08-19T00:19:31.587Z,1.70
2017-08-19T00:22:01.019Z,1.37
2017-08-19T00:24:30.469Z,1.23
2017-08-19T00:26:59.919Z,1.30
2017-08-19T00:29:29.355Z,1.63
2017-08-19T00:31:58.784Z,1.30
2017-08-19T00:34:28.239Z,1.50
2017-08-19T00:36:57.667Z,1.80
2017-08-19T00:39:27.131Z,1.67
2017-08-19T00:41:56.592Z,1.30
2017-08-19T00:44:26.018Z,1.30
2017-08-19T00:46:55.472Z,1.33
2017-08-19T00:49:24.737Z,1.40
2017-08-19T00:51:54.181Z,1.20
2017-08-19T00:54:23.611Z,1.57
2017-08-19T00:56:53.062Z,1.33
2017-08-19T00:59:22.492Z,1.40
2017-08-19T01:01:51.939Z,1.50
2017-08-19T01:04:21.376Z,1.27
2017-08-19T01:06:51.353Z,1.80
2017-08-19T01:09:20.613Z,1.30
2017-08-19T01:11:50.052Z,1.40
2017-08-19T01:14:19.521Z,1.50
2017-08-19T01:16:48.954Z,1.53
2017-08-19T01:19:18.406Z,1.53
2017-08-19T01:21:47.836Z,1.10
2017-08-19T01:24:17.277Z,1.30
2017-08-19T01:27:00.452Z,1.40
2017-08-19T01:29:29.887Z,1.07
2017-08-19T01:31:59.329Z,1.30
2017-08-19T01:34:28.777Z,1.17
2017-08-19T01:36:58.238Z,1.00
2017-08-19T01:39:27.340Z,1.80
2017-08-19T01:41:56.779Z,1.30
2017-08-19T01:44:26.216Z,1.30
2017-08-19T01:46:55.654Z,1.60
2017-08-19T01:49:25.098Z,1.43
2017-08-19T01:51:54.545Z,1.00
2017-08-19T01:54:23.977Z,1.00
2017-08-19T01:56:53.412Z,1.00
2017-08-19T01:59:22.680Z,0.93
2017-08-19T02:01:52.121Z,1.00
2017-08-19T02:04:21.568Z,1.20
2017-08-19T02:06:51.788Z,1.07
2017-08-19T02:09:21.228Z,1.33
2017-08-19T02:11:50.700Z,0.97
2017-08-19T02:14:20.126Z,1.10
2017-08-19T02:16:49.584Z,0.80
2017-08-19T02:19:19.014Z,1.10
2017-08-19T02:21:48.540Z,0.90
2017-08-19T02:24:17.968Z,1.20
2017-08-19T02:26:47.417Z,1.43
2017-08-19T02:29:16.950Z,1.00
2017-08-19T02:31:46.377Z,1.30
2017-08-19T02:34:15.804Z,1.23
2017-08-19T02:36:45.268Z,1.03
2017-08-19T02:39:14.715Z,0.90
2017-08-19T02:41:44.147Z,1.00
2017-08-19T02:44:13.580Z,1.00
2017-08-19T02:46:43.041Z,1.10
2017-08-19T02:49:12.482Z,1.27
2017-08-19T02:51:41.924Z,1.20
2017-08-19T02:54:11.381Z,1.37
2017-08-19T02:56:40.827Z,1.40
2017-08-19T02:59:10.265Z,1.20
2017-08-19T03:01:39.548Z,1.30
2017-08-19T03:04:09.045Z,1.30
2017-08-19T03:06:38.496Z,1.20
2017-08-19T03:09:07.942Z,1.43
2017-08-19T03:11:37.389Z,1.20
2017-08-19T03:14:06.828Z,1.20
2017-08-19T03:16:36.286Z,1.10
2017-08-19T03:19:05.744Z,1.40
2017-08-19T03:21:35.169Z,1.20
2017-08-19T03:24:04.621Z,1.20
2017-08-19T03:26:34.065Z,1.30
2017-08-19T03:29:03.548Z,1.10
2017-08-19T03:31:32.981Z,1.20
2017-08-19T03:34:02.430Z,1.40
2017-08-19T03:36:31.886Z,1.10
2017-08-19T03:39:01.349Z,1.70
2017-08-19T03:41:30.630Z,1.23
2017-08-19T03:44:00.091Z,1.60
2017-08-19T03:46:29.539Z,1.17
2017-08-19T03:48:58.976Z,1.70
2017-08-19T03:51:28.413Z,1.43
2017-08-19T03:53:57.865Z,1.30
2017-08-19T03:56:27.325Z,1.50
2017-08-19T03:58:56.770Z,1.40
2017-08-19T04:01:26.209Z,1.33
2017-08-19T04:03:55.692Z,1.60
2017-08-19T04:06:25.133Z,1.60
2017-08-19T04:08:54.593Z,1.70
2017-08-19T04:11:24.028Z,1.23
2017-08-19T04:13:53.301Z,1.70
2017-08-19T04:16:22.748Z,1.50
2017-08-19T04:18:52.185Z,1.77
2017-08-19T04:21:21.639Z,1.80
2017-08-19T04:23:51.092Z,1.63
2017-08-19T04:26:20.520Z,1.50
2017-08-19T04:28:49.967Z,1.47
2017-08-19T04:31:19.414Z,1.60
2017-08-19T04:33:48.855Z,1.40
2017-08-19T04:36:18.313Z,1.47
2017-08-19T04:38:47.761Z,1.60
2017-08-19T04:41:16.887Z,1.50
2017-08-19T04:43:46.361Z,1.40
2017-08-19T04:46:15.825Z,1.80
2017-08-19T04:48:45.296Z,1.40
2017-08-19T04:51:14.744Z,1.43
2017-08-19T04:53:44.190Z,1.60
2017-08-19T04:56:13.656Z,2.30
2017-08-19T04:58:43.100Z,1.67
2017-08-19T05:01:12.545Z,1.40
2017-08-19T05:03:41.985Z,1.70
2017-08-19T05:06:11.429Z,1.50
2017-08-19T05:08:40.889Z,1.80
2017-08-19T05:11:10.318Z,1.40
2017-08-19T05:13:39.788Z,2.00
2017-08-19T05:16:09.225Z,1.63
2017-08-19T05:18:38.696Z,1.47
2017-08-19T05:21:08.138Z,1.40
2017-08-19T05:23:37.611Z,1.20
2017-08-19T05:26:07.044Z,1.50
2017-08-19T05:28:36.496Z,1.60
2017-08-19T05:31:05.947Z,1.60
2017-08-19T05:33:35.405Z,1.60
2017-08-19T05:36:04.857Z,1.63
2017-08-19T05:38:34.297Z,1.10
2017-08-19T05:41:03.854Z,1.27
2017-08-19T05:43:33.276Z,2.07
2017-08-19T05:46:02.724Z,1.40
2017-08-19T05:48:32.167Z,1.47
2017-08-19T05:51:01.600Z,1.93
2017-08-19T05:53:31.054Z,1.43
2017-08-19T05:56:00.495Z,1.57
2017-08-19T05:58:29.988Z,3.43
2017-08-19T06:00:59.493Z,2.40
2017-08-19T06:03:28.932Z,2.40
2017-08-19T06:05:58.381Z,2.00
2017-08-19T06:08:27.835Z,2.83
2017-08-19T06:10:57.276Z,2.00
2017-08-19T06:13:26.727Z,2.00
2017-08-19T06:15:56.185Z,2.00
2017-08-19T06:18:25.624Z,1.90
2017-08-19T06:20:55.073Z,2.77
2017-08-19T06:23:24.373Z,2.10
2017-08-19T06:25:53.818Z,2.00
2017-08-19T06:28:23.259Z,1.70
2017-08-19T06:30:52.735Z,1.70
2017-08-19T06:33:22.187Z,3.80
2017-08-19T06:35:51.613Z,2.20
2017-08-19T06:38:21.061Z,2.07
2017-08-19T06:40:50.533Z,2.40
2017-08-19T06:43:19.990Z,2.77
2017-08-19T06:45:49.441Z,4.10
2017-08-19T06:48:18.898Z,3.87
2017-08-19T06:50:48.336Z,3.90
2017-08-19T06:53:17.780Z,3.20
2017-08-19T06:55:47.224Z,3.63
2017-08-19T06:58:16.705Z,3.50
2017-08-19T07:00:46.140Z,2.10
2017-08-19T07:03:15.597Z,2.00
2017-08-19T07:05:45.033Z,2.23
2017-08-19T07:08:14.492Z,1.70
2017-08-19T07:10:43.927Z,1.87
2017-08-19T07:13:13.369Z,2.00
2017-08-19T07:15:42.834Z,2.20
2017-08-19T07:18:12.277Z,2.47
2017-08-19T07:20:43.325Z,2.00
2017-08-19T07:23:12.765Z,2.43
2017-08-19T07:25:42.212Z,1.87
2017-08-19T07:28:11.670Z,2.47
2017-08-19T07:30:41.117Z,2.70
2017-08-19T07:33:10.560Z,2.23
2017-08-19T07:35:40.932Z,2.00
2017-08-19T07:38:10.371Z,2.37
2017-08-19T07:40:39.917Z,2.20
2017-08-19T07:43:09.340Z,2.10
2017-08-19T07:45:38.779Z,2.20
2017-08-19T07:48:08.222Z,2.20
2017-08-19T07:50:37.664Z,2.40
2017-08-19T07:53:07.107Z,2.33
2017-08-19T07:55:36.561Z,2.50
2017-08-19T07:58:06.013Z,1.70
2017-08-19T08:00:35.442Z,1.70
2017-08-19T08:03:04.892Z,1.40
2017-08-19T08:05:34.333Z,1.20
2017-08-19T08:08:03.768Z,2.00
2017-08-19T08:10:33.222Z,1.47
2017-08-19T08:13:02.671Z,1.40
2017-08-19T08:15:32.108Z,1.40
2017-08-19T08:18:01.581Z,1.30
2017-08-19T08:20:31.038Z,1.50
2017-08-19T08:23:00.506Z,1.40
2017-08-19T08:25:29.954Z,1.60
2017-08-19T08:27:59.382Z,1.47
2017-08-19T08:30:28.823Z,1.27
2017-08-19T08:32:58.257Z,1.47
2017-08-19T08:35:27.708Z,1.33
2017-08-19T08:37:57.149Z,1.30
2017-08-19T08:40:26.634Z,1.50
2017-08-19T08:42:56.069Z,1.40
2017-08-19T08:45:25.536Z,1.63
2017-08-19T08:47:54.983Z,1.73
2017-08-19T08:50:24.467Z,1.40
2017-08-19T08:52:53.927Z,2.17
2017-08-19T08:55:24.148Z,1.30
2017-08-19T08:57:53.582Z,1.17
2017-08-19T09:00:22.737Z,1.43
2017-08-19T09:02:52.008Z,1.10
2017-08-19T09:05:21.486Z,1.60
2017-08-19T09:07:50.929Z,1.30
2017-08-19T09:10:20.433Z,1.27
2017-08-19T09:12:49.893Z,1.30
2017-08-19T09:15:19.380Z,1.13
2017-08-19T09:17:48.824Z,1.30
2017-08-19T09:20:18.300Z,1.13
2017-08-19T09:22:47.730Z,1.37
2017-08-19T09:25:17.224Z,1.30
2017-08-19T09:27:46.678Z,1.20
2017-08-19T09:30:16.154Z,1.67
2017-08-19T09:32:45.605Z,1.10
2017-08-19T09:35:15.089Z,1.10
2017-08-19T09:37:44.518Z,1.37
2017-08-19T09:40:14.012Z,1.20
2017-08-19T09:42:43.456Z,1.50
2017-08-19T09:45:13.045Z,1.10
2017-08-19T09:47:42.476Z,1.70
2017-08-19T09:50:11.930Z,1.00
2017-08-19T09:52:41.373Z,1.37
2017-08-19T09:55:10.683Z,1.00
2017-08-19T09:57:40.126Z,1.10
2017-08-19T10:00:09.626Z,1.00
2017-08-19T10:02:38.883Z,1.00
2017-08-19T10:05:08.350Z,1.10
2017-08-19T10:07:41.669Z,1.10
2017-08-19T10:10:22.299Z,1.67
2017-08-19T10:12:51.725Z,1.33
2017-08-19T10:15:21.206Z,1.50
2017-08-19T10:17:50.666Z,1.50
2017-08-19T10:20:20.199Z,1.43
2017-08-19T10:22:49.669Z,1.47
2017-08-19T10:25:19.142Z,1.57
2017-08-19T10:27:48.606Z,1.20
2017-08-19T10:30:18.075Z,1.30
2017-08-19T10:32:47.549Z,1.50
2017-08-19T10:35:17.050Z,1.40
2017-08-19T10:37:46.568Z,1.40
2017-08-19T10:40:16.085Z,1.13
2017-08-19T10:42:45.533Z,1.13
2017-08-19T10:45:15.016Z,1.20
2017-08-19T10:47:44.445Z,1.43
2017-08-19T10:50:13.926Z,1.30
2017-08-19T10:55:22.043Z,1.10
2017-08-19T10:57:51.495Z,1.30
2017-08-19T11:00:21.007Z,1.10
2017-08-19T11:02:50.476Z,1.00
2017-08-19T11:05:20.019Z,1.33
2017-08-19T11:07:49.462Z,1.50
2017-08-19T11:10:18.962Z,1.20
2017-08-19T11:12:48.390Z,1.43
2017-08-19T11:15:17.866Z,1.50
2017-08-19T11:17:47.414Z,1.60
2017-08-19T11:20:18.558Z,1.60
2017-08-19T11:22:49.208Z,1.80
2017-08-19T11:25:20.543Z,1.90
2017-08-19T11:27:50.840Z,2.60
2017-08-19T11:30:20.908Z,2.30
2017-08-19T11:32:52.561Z,2.97
2017-08-19T11:35:23.193Z,1.63
2017-08-19T11:37:52.844Z,2.10
2017-08-19T11:40:22.321Z,2.33
2017-08-19T11:42:51.983Z,2.20
2017-08-19T11:45:21.574Z,2.80
2017-08-19T11:47:51.004Z,3.10
2017-08-19T11:50:20.784Z,2.27
2017-08-19T11:52:50.516Z,2.00
2017-08-19T11:55:20.001Z,2.20
2017-08-19T11:57:49.502Z,2.17
2017-08-19T12:00:20.254Z,1.90
2017-08-19T12:02:49.856Z,2.17
2017-08-19T12:05:19.335Z,1.87
2017-08-19T12:07:48.780Z,2.00
2017-08-19T12:10:18.304Z,1.97
2017-08-19T12:12:47.727Z,1.90
2017-08-19T12:15:17.264Z,1.97
2017-08-19T12:17:46.691Z,1.87
2017-08-19T12:20:16.179Z,2.10
2017-08-19T12:22:45.635Z,2.23
2017-08-19T12:25:15.142Z,1.63
2017-08-19T12:27:44.566Z,1.73
2017-08-19T12:30:14.046Z,1.83
2017-08-19T12:32:43.508Z,1.33
2017-08-19T12:35:12.987Z,1.80
2017-08-19T12:37:42.512Z,2.20
2017-08-19T12:40:11.990Z,1.87
2017-08-19T12:42:41.438Z,2.60
2017-08-19T12:45:10.919Z,3.10
2017-08-19T12:47:40.370Z,2.70
2017-08-19T12:50:09.858Z,2.37
2017-08-19T12:52:39.304Z,1.63
2017-08-19T12:55:13.602Z,1.90
2017-08-19T12:57:43.040Z,1.90
2017-08-19T13:00:12.535Z,1.80
2017-08-19T13:02:41.976Z,2.10
2017-08-19T13:05:11.459Z,1.60
2017-08-19T13:07:40.920Z,1.50
2017-08-19T13:10:10.395Z,1.60
2017-08-19T13:12:39.851Z,1.23
2017-08-19T13:15:09.403Z,1.97
2017-08-19T13:17:38.869Z,9.93
2017-08-19T13:20:08.407Z,9.67
2017-08-19T13:22:37.890Z,3.90
2017-08-19T13:25:07.414Z,3.10
2017-08-19T13:27:36.887Z,2.37
2017-08-19T13:30:06.406Z,2.00
2017-08-19T13:32:35.979Z,1.80
2017-08-19T13:35:05.455Z,1.60
2017-08-19T13:37:34.941Z,2.00
2017-08-19T13:40:04.450Z,1.73
2017-08-19T13:42:33.881Z,1.33
2017-08-19T13:45:03.373Z,1.47
2017-08-19T13:47:32.810Z,1.77
2017-08-19T13:50:02.318Z,2.47
2017-08-19T13:52:31.762Z,1.90
2017-08-19T13:55:01.200Z,1.80
2017-08-19T13:57:30.733Z,1.70
2017-08-19T14:00:00.198Z,1.87
2017-08-19T14:02:29.648Z,1.63
2017-08-19T14:04:59.096Z,1.60
2017-08-19T14:07:28.611Z,1.93
2017-08-19T14:09:58.056Z,1.73
2017-08-19T14:12:27.493Z,1.87
2017-08-19T14:14:56.940Z,2.03
2017-08-19T14:17:26.429Z,1.90
2017-08-19T14:19:58.039Z,2.00
2017-08-19T14:22:29.422Z,1.73
2017-08-19T14:24:58.863Z,1.70
2017-08-19T14:27:28.301Z,2.03
2017-08-19T14:29:57.748Z,2.10
2017-08-19T14:32:27.246Z,1.80
2017-08-19T14:34:56.706Z,2.00
2017-08-19T14:37:26.152Z,1.90
2017-08-19T14:39:55.608Z,2.30
2017-08-19T14:42:25.053Z,1.90
2017-08-19T14:44:54.502Z,1.90
2017-08-19T14:47:24.057Z,2.03
2017-08-19T14:49:53.482Z,2.27
2017-08-19T14:52:22.937Z,11.17
2017-08-19T14:54:52.390Z,7.00
2017-08-19T14:57:21.848Z,5.17
2017-08-19T14:59:51.315Z,3.93
2017-08-19T15:02:20.756Z,6.97
2017-08-19T15:04:50.196Z,6.10
2017-08-19T15:07:19.668Z,2.63
2017-08-19T15:09:49.089Z,2.80
2017-08-19T15:12:18.554Z,2.57
2017-08-19T15:14:47.996Z,2.90
2017-08-19T15:17:17.433Z,2.53
2017-08-19T15:19:46.886Z,3.00
2017-08-19T15:22:16.336Z,2.70
2017-08-19T15:24:45.769Z,2.40
2017-08-19T15:27:15.215Z,2.43
2017-08-19T15:29:44.681Z,2.60
2017-08-19T15:32:14.142Z,2.30
2017-08-19T15:34:43.649Z,2.43
2017-08-19T15:37:13.089Z,2.50
2017-08-19T15:39:42.532Z,2.50
2017-08-19T15:42:11.988Z,2.60
2017-08-19T15:44:41.441Z,2.60
2017-08-19T15:47:10.902Z,2.60
2017-08-19T15:49:40.342Z,2.60
2017-08-19T15:52:09.882Z,2.93
2017-08-19T15:54:39.317Z,3.10
2017-08-19T15:57:08.761Z,2.70
2017-08-19T15:59:38.210Z,3.53
2017-08-19T16:02:07.656Z,3.17
2017-08-19T16:04:37.104Z,3.10
2017-08-19T16:07:06.562Z,3.40
2017-08-19T16:09:36.017Z,2.30
2017-08-19T16:12:05.506Z,2.10
2017-08-19T16:14:34.975Z,2.67
2017-08-19T16:17:04.443Z,3.10
2017-08-19T16:19:33.873Z,2.40
2017-08-19T16:22:03.332Z,2.77
2017-08-19T16:24:32.868Z,2.40
2017-08-19T16:27:02.343Z,2.13
2017-08-19T16:29:31.801Z,2.50
2017-08-19T16:32:01.281Z,2.63
2017-08-19T16:34:30.721Z,2.70
2017-08-19T16:37:00.167Z,2.73
2017-08-19T16:39:29.633Z,2.90
2017-08-19T16:41:59.210Z,2.53
2017-08-19T16:44:28.661Z,3.30
2017-08-19T16:46:58.117Z,3.30
2017-08-19T16:49:27.569Z,3.20
2017-08-19T16:51:57.002Z,3.30
2017-08-19T16:54:27.325Z,2.73
2017-08-19T16:56:56.758Z,3.00
2017-08-19T16:59:26.241Z,3.20
2017-08-19T17:01:55.710Z,2.70
2017-08-19T17:04:25.144Z,2.90
2017-08-19T17:06:54.608Z,2.70
2017-08-19T17:09:24.068Z,3.00
2017-08-19T17:11:53.509Z,2.90
2017-08-19T17:14:22.958Z,2.63
2017-08-19T17:16:52.388Z,3.10
2017-08-19T17:19:21.834Z,4.20
2017-08-19T17:21:51.290Z,3.60
2017-08-19T17:24:20.723Z,3.63
2017-08-19T17:26:50.183Z,4.30
2017-08-19T17:29:19.629Z,4.97
2017-08-19T17:31:49.083Z,4.60
2017-08-19T17:34:18.538Z,4.20
2017-08-19T17:36:48.101Z,3.90
2017-08-19T17:39:17.557Z,4.03
2017-08-19T17:41:47.016Z,4.20
2017-08-19T17:44:16.474Z,4.30
2017-08-19T17:46:45.916Z,3.93
2017-08-19T17:49:15.353Z,4.00
2017-08-19T17:51:44.816Z,3.63
2017-08-19T17:54:14.296Z,4.10
2017-08-19T17:56:43.740Z,4.00
2017-08-19T17:59:13.219Z,3.53
2017-08-19T18:01:42.697Z,4.27
2017-08-19T18:04:12.145Z,3.70
2017-08-19T18:06:41.575Z,3.50
2017-08-19T18:09:11.053Z,4.07
2017-08-19T18:11:40.496Z,3.47
2017-08-19T18:14:09.953Z,4.37
2017-08-19T18:16:39.402Z,4.67
2017-08-19T18:19:08.873Z,4.20
2017-08-19T18:21:38.311Z,4.27
2017-08-19T18:24:07.775Z,4.87
2017-08-19T18:26:37.250Z,5.27
2017-08-19T18:29:06.675Z,5.00
2017-08-19T18:31:36.153Z,4.77
2017-08-19T18:34:06.484Z,5.60
2017-08-19T18:36:36.007Z,5.20
2017-08-19T18:39:04.885Z,5.47
2017-08-19T18:41:34.321Z,5.30
2017-08-19T18:44:03.774Z,4.90
2017-08-19T18:46:33.217Z,5.00
2017-08-19T18:49:02.685Z,4.80
2017-08-19T18:51:32.142Z,4.03
2017-08-19T18:54:01.632Z,3.70
2017-08-19T18:56:31.075Z,3.40
2017-08-19T18:59:00.511Z,3.73
2017-08-19T19:01:29.960Z,3.60
2017-08-19T19:03:59.417Z,2.77
2017-08-19T19:06:28.955Z,3.67
2017-08-19T19:08:58.376Z,2.90
2017-08-19T19:11:27.837Z,2.17
2017-08-19T19:13:57.297Z,3.00
2017-08-19T19:16:26.749Z,2.40
2017-08-19T19:18:56.201Z,2.60
2017-08-19T19:21:25.632Z,2.60
2017-08-19T19:23:55.082Z,2.50
2017-08-19T19:26:24.534Z,3.10
2017-08-19T19:28:53.964Z,3.37
2017-08-19T19:31:23.408Z,2.80
2017-08-19T19:33:52.875Z,4.00
2017-08-19T19:36:22.354Z,12.80
2017-08-19T19:38:51.808Z,7.83
2017-08-19T19:41:21.272Z,8.33
2017-08-19T19:43:50.720Z,6.20
2017-08-19T19:46:20.168Z,4.47
2017-08-19T19:48:49.709Z,4.40
2017-08-19T19:51:19.149Z,3.97
2017-08-19T19:53:48.605Z,5.03
2017-08-19T19:56:18.057Z,4.27
2017-08-19T19:58:47.527Z,4.20
2017-08-19T20:01:16.968Z,4.47
2017-08-19T20:03:46.425Z,4.27
2017-08-19T20:06:15.885Z,7.17
2017-08-19T20:08:45.346Z,4.87
2017-08-19T20:11:14.785Z,5.37
2017-08-19T20:13:44.247Z,4.73
2017-08-19T20:16:13.690Z,5.10
2017-08-19T20:18:43.170Z,4.30
2017-08-19T20:21:12.624Z,4.13
2017-08-19T20:23:42.114Z,4.60
2017-08-19T20:26:11.561Z,4.83
2017-08-19T20:28:41.026Z,4.70
2017-08-19T20:31:11.020Z,5.17
2017-08-19T20:33:40.484Z,4.70
2017-08-19T20:36:09.924Z,4.93
2017-08-19T20:38:39.397Z,5.10
2017-08-19T20:41:08.664Z,4.47
2017-08-19T20:43:38.105Z,5.20
2017-08-19T20:46:07.564Z,5.77
2017-08-19T20:48:37.012Z,5.47
2017-08-19T20:51:06.466Z,5.50
2017-08-19T20:53:35.937Z,5.03
2017-08-19T20:56:05.382Z,5.93
2017-08-19T20:58:34.816Z,4.93
2017-08-19T21:01:04.276Z,5.70
2017-08-19T21:03:34.672Z,4.30
2017-08-19T21:06:04.109Z,4.40
2017-08-19T21:08:33.561Z,4.90
2017-08-19T21:11:03.015Z,5.50
2017-08-19T21:13:32.482Z,5.77
2017-08-19T21:16:01.936Z,6.70
2017-08-19T21:18:31.372Z,6.50
2017-08-19T21:21:00.829Z,5.90
2017-08-19T21:23:30.326Z,6.30
2017-08-19T21:25:59.760Z,6.40
2017-08-19T21:28:29.235Z,6.07
2017-08-19T21:30:58.681Z,5.97
2017-08-19T21:33:28.171Z,6.20
2017-08-19T21:35:57.615Z,6.17
2017-08-19T21:38:27.058Z,5.90
2017-08-19T21:40:56.501Z,6.33
2017-08-19T21:43:25.962Z,6.10
2017-08-19T21:45:55.411Z,5.70
2017-08-19T21:48:24.828Z,6.07
2017-08-19T21:50:54.302Z,5.63
2017-08-19T21:53:24.614Z,5.07
2017-08-19T21:55:54.069Z,5.17
2017-08-19T21:58:23.521Z,5.40
2017-08-19T22:00:52.385Z,5.17
2017-08-19T22:03:21.649Z,5.00
2017-08-19T22:08:29.662Z,5.43
2017-08-19T22:10:59.113Z,5.83
2017-08-19T22:13:28.556Z,5.63
2017-08-19T22:15:58.009Z,6.30
2017-08-19T22:18:27.476Z,6.67
2017-08-19T22:20:56.900Z,5.37
2017-08-19T22:23:26.353Z,7.53
2017-08-19T22:25:55.801Z,7.23
2017-08-19T22:28:25.264Z,6.53
2017-08-19T22:30:54.689Z,6.80
2017-08-19T22:33:24.155Z,8.27
2017-08-19T22:35:53.601Z,6.80
2017-08-19T22:38:23.053Z,8.20
2017-08-19T22:40:52.504Z,7.77
2017-08-19T22:43:21.954Z,6.80
2017-08-19T22:45:51.405Z,6.10
2017-08-19T22:48:20.845Z,5.43
2017-08-19T22:50:50.323Z,5.63
2017-08-19T22:53:19.772Z,6.97
2017-08-19T22:55:49.213Z,5.30
2017-08-19T22:58:18.644Z,6.20
2017-08-19T23:00:48.111Z,6.03
2017-08-19T23:03:17.385Z,6.00
2017-08-19T23:05:46.809Z,5.80
2017-08-19T23:08:16.314Z,6.00
2017-08-19T23:10:45.756Z,5.87
2017-08-19T23:13:15.217Z,5.47
2017-08-19T23:15:44.668Z,5.53
2017-08-19T23:18:14.126Z,5.93
2017-08-19T23:20:43.756Z,6.57
2017-08-19T23:23:13.228Z,6.37
2017-08-19T23:25:42.675Z,6.80
2017-08-19T23:28:12.140Z,6.90
2017-08-19T23:30:41.589Z,6.10
2017-08-19T23:33:11.039Z,6.40
2017-08-19T23:35:40.488Z,5.40
2017-08-19T23:38:09.928Z,5.30
2017-08-19T23:40:39.393Z,5.23
2017-08-19T23:43:08.823Z,5.50
2017-08-19T23:45:38.271Z,6.17
2017-08-19T23:48:07.709Z,5.73
2017-08-19T23:50:37.149Z,6.40
2017-08-19T23:53:06.605Z,5.83
2017-08-19T23:55:36.052Z,6.20
2017-08-19T23:58:05.493Z,6.27
